createdAt,value
2022-08-20T00:02:15.511Z,26.30
2022-08-20T00:04:44.190Z,27.60
2022-08-20T00:07:13.641Z,27.30
2022-08-20T00:09:42.989Z,26.90
2022-08-20T00:12:13.321Z,27.70
2022-08-20T00:14:41.160Z,27.00
2022-08-20T00:17:08.973Z,29.80
2022-08-20T00:19:36.880Z,27.50
2022-08-20T00:22:05.638Z,24.80
2022-08-20T00:24:33.495Z,26.00
2022-08-20T00:27:01.289Z,26.60
2022-08-20T00:29:29.084Z,28.50
2022-08-20T00:31:56.897Z,28.40
2022-08-20T00:34:25.013Z,27.80
2022-08-20T00:36:54.330Z,28.80
2022-08-20T00:39:23.611Z,30.20
2022-08-20T00:41:52.193Z,28.80
2022-08-20T00:44:22.764Z,30.00
2022-08-20T00:46:52.674Z,29.20
2022-08-20T00:49:28.157Z,35.10
2022-08-20T00:52:06.832Z,29.00
2022-08-20T00:54:47.355Z,28.60
2022-08-20T00:57:24.869Z,32.10
2022-08-20T01:00:14.310Z,27.70
2022-08-20T01:02:42.631Z,29.50
2022-08-20T01:05:11.440Z,28.80
2022-08-20T01:07:39.639Z,29.50
2022-08-20T01:10:34.837Z,29.80
2022-08-20T01:13:10.150Z,30.10
2022-08-20T01:15:43.347Z,32.70
2022-08-20T01:20:52.667Z,33.00
2022-08-20T01:23:30.244Z,34.70
2022-08-20T01:26:04.206Z,32.10
2022-08-20T01:28:43.892Z,31.50
2022-08-20T01:31:36.128Z,33.50
2022-08-20T01:34:07.280Z,34.70
2022-08-20T01:36:55.754Z,32.80
2022-08-20T01:39:32.946Z,33.00
2022-08-20T01:42:03.840Z,33.60
2022-08-20T01:44:32.893Z,31.30
2022-08-20T01:47:17.614Z,30.60
2022-08-20T01:49:51.158Z,44.00
2022-08-20T01:52:33.553Z,33.00
2022-08-20T01:55:01.800Z,32.20
2022-08-20T01:57:29.690Z,31.40
2022-08-20T01:59:57.527Z,29.40
2022-08-20T02:02:26.426Z,30.10
2022-08-20T02:04:54.569Z,30.10
2022-08-20T02:07:22.880Z,31.10
2022-08-20T02:09:51.135Z,31.70
2022-08-20T02:12:19.703Z,33.60
2022-08-20T02:14:53.516Z,29.60
2022-08-20T02:17:24.140Z,30.80
2022-08-20T02:19:57.218Z,29.20
2022-08-20T02:22:40.200Z,28.80
2022-08-20T02:25:15.279Z,29.30
2022-08-20T02:27:47.130Z,29.80
2022-08-20T02:30:27.798Z,29.70
2022-08-20T02:32:57.923Z,30.70
2022-08-20T02:35:26.597Z,30.40
2022-08-20T02:37:55.289Z,31.70
2022-08-20T02:40:27.084Z,33.50
2022-08-20T02:43:01.765Z,32.90
2022-08-20T02:45:39.549Z,31.10
2022-08-20T02:48:08.717Z,30.40
2022-08-20T02:50:38.153Z,27.40
2022-08-20T02:53:08.866Z,27.10
2022-08-20T02:55:36.729Z,34.30
2022-08-20T02:58:04.693Z,29.70
2022-08-20T03:00:38.276Z,31.00
2022-08-20T03:03:11.586Z,30.60
2022-08-20T03:05:41.917Z,32.40
2022-08-20T03:08:13.471Z,30.70
2022-08-20T03:10:44.334Z,34.60
2022-08-20T03:13:13.594Z,33.10
2022-08-20T03:15:46.287Z,34.60
2022-08-20T03:18:14.958Z,34.80
2022-08-20T03:20:43.639Z,36.80
2022-08-20T03:23:15.610Z,37.20
2022-08-20T03:25:43.902Z,39.60
2022-08-20T03:28:13.687Z,33.40
2022-08-20T03:30:42.440Z,36.50
2022-08-20T03:33:10.796Z,39.00
2022-08-20T03:35:39.080Z,37.00
2022-08-20T03:38:10.624Z,37.30
2022-08-20T03:40:39.019Z,34.20
2022-08-20T03:43:09.833Z,33.90
2022-08-20T03:45:39.633Z,33.80
2022-08-20T03:48:08.748Z,34.30
2022-08-20T03:50:37.235Z,35.50
2022-08-20T03:53:05.213Z,31.70
2022-08-20T03:55:33.167Z,31.80
2022-08-20T03:58:04.011Z,31.20
2022-08-20T04:00:37.321Z,35.10
2022-08-20T04:03:05.874Z,31.80
2022-08-20T04:05:34.655Z,31.70
2022-08-20T04:08:04.192Z,32.80
2022-08-20T04:10:35.630Z,35.10
2022-08-20T04:13:05.687Z,32.50
2022-08-20T04:15:37.202Z,32.20
2022-08-20T04:18:10.515Z,34.80
2022-08-20T04:20:41.367Z,34.40
2022-08-20T04:23:09.939Z,36.60
2022-08-20T04:25:43.232Z,33.70
2022-08-20T04:30:43.397Z,33.70
2022-08-20T04:33:33.428Z,34.10
2022-08-20T04:36:06.325Z,37.00
2022-08-20T04:38:50.083Z,32.80
2022-08-20T04:41:23.177Z,34.10
2022-08-20T04:43:54.441Z,41.30
2022-08-20T04:46:26.063Z,41.70
2022-08-20T04:48:55.448Z,39.70
2022-08-20T04:51:24.476Z,35.30
2022-08-20T04:53:54.709Z,40.20
2022-08-20T04:56:24.683Z,38.00
2022-08-20T04:58:55.401Z,44.50
2022-08-20T05:01:24.084Z,40.50
2022-08-20T05:03:55.377Z,37.70
2022-08-20T05:06:28.748Z,36.30
2022-08-20T05:08:59.075Z,40.20
2022-08-20T05:11:36.884Z,38.90
2022-08-20T05:14:10.238Z,39.70
2022-08-20T05:16:40.644Z,34.40
2022-08-20T05:19:12.499Z,39.90
2022-08-20T05:21:41.766Z,36.80
2022-08-20T05:24:10.691Z,37.90
2022-08-20T05:26:38.623Z,38.40
2022-08-20T05:29:07.061Z,39.30
2022-08-20T05:31:37.618Z,43.60
2022-08-20T05:34:12.247Z,40.50
2022-08-20T05:36:43.298Z,38.80
2022-08-20T05:39:13.583Z,39.00
2022-08-20T05:41:41.875Z,46.10
2022-08-20T05:44:13.797Z,42.60
2022-08-20T05:46:44.182Z,44.00
2022-08-20T05:49:15.730Z,34.80
2022-08-20T05:51:44.116Z,41.50
2022-08-20T05:54:14.950Z,44.40
2022-08-20T05:56:42.774Z,37.60
2022-08-20T05:59:12.456Z,38.30
2022-08-20T06:01:41.403Z,43.80
2022-08-20T06:04:31.952Z,46.00
2022-08-20T06:07:06.381Z,43.00
2022-08-20T06:09:36.488Z,45.10
2022-08-20T06:12:06.691Z,48.10
2022-08-20T06:14:34.581Z,48.80
2022-08-20T06:17:07.854Z,44.60
2022-08-20T06:19:37.674Z,47.50
2022-08-20T06:22:18.393Z,49.10
2022-08-20T06:24:51.440Z,53.10
2022-08-20T06:27:20.398Z,46.30
2022-08-20T06:29:51.557Z,50.60
2022-08-20T06:32:28.815Z,53.40
2022-08-20T06:35:09.374Z,47.60
2022-08-20T06:37:40.387Z,51.30
2022-08-20T06:40:20.015Z,55.00
2022-08-20T06:42:48.952Z,50.20
2022-08-20T06:45:20.676Z,52.90
2022-08-20T06:47:51.782Z,53.50
2022-08-20T06:50:27.579Z,50.90
2022-08-20T06:52:59.944Z,46.00
2022-08-20T06:55:28.376Z,46.70
2022-08-20T06:58:01.455Z,51.80
2022-08-20T07:00:33.187Z,55.00
2022-08-20T07:03:02.628Z,56.40
2022-08-20T07:05:34.746Z,44.40
2022-08-20T07:08:03.630Z,52.20
2022-08-20T07:10:31.906Z,46.50
2022-08-20T07:13:00.574Z,52.00
2022-08-20T07:15:30.597Z,50.60
2022-08-20T07:18:02.483Z,50.80
2022-08-20T07:20:32.517Z,47.50
2022-08-20T07:23:01.547Z,51.50
2022-08-20T07:25:31.994Z,49.70
2022-08-20T07:28:12.733Z,44.60
2022-08-20T07:31:13.272Z,43.90
2022-08-20T07:33:44.392Z,46.70
2022-08-20T07:36:13.652Z,46.50
2022-08-20T07:38:43.427Z,47.30
2022-08-20T07:41:13.628Z,49.10
2022-08-20T07:43:48.736Z,49.90
2022-08-20T07:46:21.614Z,48.90
2022-08-20T07:48:50.599Z,44.70
2022-08-20T07:51:22.570Z,44.50
2022-08-20T07:53:52.275Z,42.50
2022-08-20T07:56:24.275Z,44.20
2022-08-20T07:58:55.698Z,44.50
2022-08-20T08:01:30.560Z,43.40
2022-08-20T08:04:01.779Z,43.80
2022-08-20T08:06:31.787Z,40.40
2022-08-20T08:09:03.633Z,40.00
2022-08-20T08:11:34.986Z,41.30
2022-08-20T08:14:06.455Z,38.70
2022-08-20T08:16:38.162Z,34.10
2022-08-20T08:19:12.054Z,38.80
2022-08-20T08:21:41.439Z,38.80
2022-08-20T08:24:09.752Z,37.70
2022-08-20T08:26:37.824Z,41.00
2022-08-20T08:29:07.799Z,38.10
2022-08-20T08:31:35.898Z,39.70
2022-08-20T08:34:04.433Z,34.20
2022-08-20T08:36:32.341Z,33.10
2022-08-20T08:39:00.228Z,33.10
2022-08-20T08:41:48.542Z,30.70
2022-08-20T08:44:23.773Z,33.50
2022-08-20T08:46:57.756Z,30.70
2022-08-20T08:49:37.476Z,30.60
2022-08-20T08:52:12.235Z,32.10
2022-08-20T08:54:46.887Z,35.90
2022-08-20T08:57:15.809Z,36.30
2022-08-20T09:00:03.399Z,31.80
2022-08-20T09:02:36.400Z,30.60
2022-08-20T09:05:15.105Z,28.10
2022-08-20T09:07:47.509Z,28.50
2022-08-20T09:10:16.267Z,29.60
2022-08-20T09:12:52.107Z,27.80
2022-08-20T09:15:21.465Z,27.20
2022-08-20T09:17:49.543Z,29.50
2022-08-20T09:20:18.441Z,31.60
2022-08-20T09:22:46.486Z,30.10
2022-08-20T09:25:18.039Z,26.90
2022-08-20T09:27:46.282Z,28.60
2022-08-20T09:30:17.023Z,26.90
2022-08-20T09:32:46.479Z,22.80
2022-08-20T09:35:14.939Z,26.40
2022-08-20T09:37:43.064Z,23.90
2022-08-20T09:40:13.718Z,22.20
2022-08-20T09:42:44.227Z,21.40
2022-08-20T09:45:13.767Z,22.20
2022-08-20T09:47:55.099Z,24.40
2022-08-20T09:50:27.364Z,25.10
2022-08-20T09:52:57.838Z,23.20
2022-08-20T09:55:42.508Z,25.10
2022-08-20T09:58:24.326Z,25.60
2022-08-20T10:00:52.678Z,23.60
2022-08-20T10:03:20.757Z,24.30
2022-08-20T10:06:16.973Z,22.70
2022-08-20T10:08:49.925Z,23.90
2022-08-20T10:11:18.558Z,22.00
2022-08-20T10:13:47.601Z,22.40
2022-08-20T10:16:15.459Z,21.80
2022-08-20T10:18:43.354Z,23.60
2022-08-20T10:21:17.762Z,26.90
2022-08-20T10:23:50.352Z,23.60
2022-08-20T10:26:18.293Z,22.10
2022-08-20T10:28:49.999Z,24.30
2022-08-20T10:31:18.261Z,21.60
2022-08-20T10:33:46.121Z,44.70
2022-08-20T10:36:18.472Z,20.70
2022-08-20T10:38:46.602Z,19.90
2022-08-20T10:41:16.091Z,19.60
2022-08-20T10:43:44.240Z,19.90
2022-08-20T10:46:13.774Z,18.70
2022-08-20T10:48:41.684Z,19.80
2022-08-20T10:51:09.566Z,21.50
2022-08-20T10:53:37.510Z,18.10
2022-08-20T10:56:05.504Z,20.00
2022-08-20T10:58:39.405Z,19.40
2022-08-20T11:01:08.560Z,18.50
2022-08-20T11:03:36.425Z,18.70
2022-08-20T11:06:05.519Z,19.50
2022-08-20T11:08:36.003Z,18.80
2022-08-20T11:11:05.410Z,18.90
2022-08-20T11:13:35.089Z,16.90
2022-08-20T11:16:05.341Z,17.70
2022-08-20T11:18:33.496Z,21.10
2022-08-20T11:21:02.253Z,17.40
2022-08-20T11:23:30.508Z,17.90
2022-08-20T11:25:59.228Z,17.80
2022-08-20T11:28:31.573Z,16.40
2022-08-20T11:31:01.772Z,19.20
2022-08-20T11:33:29.691Z,18.70
2022-08-20T11:35:57.921Z,20.00
2022-08-20T11:38:26.255Z,19.40
2022-08-20T11:40:54.146Z,22.50
2022-08-20T11:43:21.994Z,16.50
2022-08-20T11:45:52.962Z,16.40
2022-08-20T11:48:21.533Z,15.60
2022-08-20T11:50:51.255Z,17.30
2022-08-20T11:53:19.585Z,14.50
2022-08-20T11:55:48.066Z,21.00
2022-08-20T11:58:16.150Z,16.70
2022-08-20T12:00:44.308Z,15.50
2022-08-20T12:03:12.627Z,15.50
2022-08-20T12:05:42.909Z,14.70
2022-08-20T12:08:26.684Z,16.40
2022-08-20T12:10:58.979Z,17.50
2022-08-20T12:13:30.638Z,15.30
2022-08-20T12:16:19.323Z,16.40
2022-08-20T12:18:47.859Z,14.40
2022-08-20T12:21:16.458Z,14.80
2022-08-20T12:23:45.145Z,13.80
2022-08-20T12:26:14.421Z,14.30
2022-08-20T12:28:42.831Z,15.20
2022-08-20T12:31:10.650Z,14.00
2022-08-20T12:33:38.778Z,13.30
2022-08-20T12:36:06.825Z,13.60
2022-08-20T12:38:34.618Z,14.60
2022-08-20T12:41:02.736Z,13.20
2022-08-20T12:43:30.593Z,13.80
2022-08-20T12:45:58.483Z,13.40
2022-08-20T12:48:26.362Z,14.60
2022-08-20T12:50:54.272Z,13.30
2022-08-20T12:53:22.982Z,14.40
2022-08-20T12:55:50.931Z,13.80
2022-08-20T12:58:19.498Z,15.90
2022-08-20T13:00:50.784Z,14.20
2022-08-20T13:03:20.303Z,13.90
2022-08-20T13:05:49.982Z,14.80
2022-08-20T13:08:19.624Z,14.70
2022-08-20T13:10:47.862Z,17.60
2022-08-20T13:13:20.400Z,16.50
2022-08-20T13:15:51.128Z,14.40
2022-08-20T13:18:20.514Z,15.60
2022-08-20T13:20:48.814Z,18.80
2022-08-20T13:23:17.282Z,14.50
2022-08-20T13:25:45.197Z,15.40
2022-08-20T13:28:13.076Z,15.70
2022-08-20T13:30:41.707Z,14.40
2022-08-20T13:33:09.759Z,17.90
2022-08-20T13:35:37.740Z,16.60
2022-08-20T13:38:05.717Z,17.10
2022-08-20T13:40:33.618Z,20.60
2022-08-20T13:43:06.440Z,19.20
2022-08-20T13:45:37.031Z,18.00
2022-08-20T13:48:06.875Z,12.20
2022-08-20T13:50:38.037Z,11.60
2022-08-20T13:53:07.182Z,7.60
2022-08-20T13:55:35.511Z,9.30
2022-08-20T13:58:08.114Z,6.00
2022-08-20T14:00:38.248Z,7.60
2022-08-20T14:03:07.529Z,7.50
2022-08-20T14:05:36.720Z,8.40
2022-08-20T14:08:20.404Z,10.80
2022-08-20T14:10:51.616Z,8.70
2022-08-20T14:13:22.941Z,8.90
2022-08-20T14:15:51.323Z,9.30
2022-08-20T14:18:20.021Z,11.00
2022-08-20T14:20:47.832Z,11.20
2022-08-20T14:23:18.831Z,10.40
2022-08-20T14:25:49.570Z,12.00
2022-08-20T14:28:24.199Z,7.20
2022-08-20T14:30:53.930Z,9.20
2022-08-20T14:33:23.881Z,6.50
2022-08-20T14:35:52.944Z,7.00
2022-08-20T14:38:20.806Z,5.70
2022-08-20T14:40:50.694Z,8.40
2022-08-20T14:43:19.637Z,7.30
2022-08-20T14:45:47.695Z,7.40
2022-08-20T14:48:16.772Z,9.10
2022-08-20T14:50:46.093Z,6.20
2022-08-20T14:53:13.966Z,6.50
2022-08-20T14:55:41.845Z,8.40
2022-08-20T14:58:13.338Z,7.30
2022-08-20T15:00:42.942Z,6.90
2022-08-20T15:03:13.631Z,7.20
2022-08-20T15:05:41.731Z,7.50
2022-08-20T15:08:11.160Z,6.60
2022-08-20T15:10:40.878Z,6.50
2022-08-20T15:13:09.862Z,6.50
2022-08-20T15:15:37.980Z,7.20
2022-08-20T15:18:07.324Z,7.40
2022-08-20T15:20:36.733Z,8.20
2022-08-20T15:23:06.296Z,8.00
2022-08-20T15:25:37.707Z,9.80
2022-08-20T15:28:09.022Z,10.20
2022-08-20T15:30:41.183Z,9.30
2022-08-20T15:33:10.248Z,8.40
2022-08-20T15:35:39.117Z,8.20
2022-08-20T15:38:07.316Z,8.50
2022-08-20T15:40:35.179Z,8.70
2022-08-20T15:43:05.430Z,9.60
2022-08-20T15:45:34.814Z,9.80
2022-08-20T15:48:16.727Z,8.90
2022-08-20T15:50:47.705Z,8.10
2022-08-20T15:53:32.072Z,9.30
2022-08-20T15:56:11.915Z,9.80
2022-08-20T15:58:59.486Z,10.50
2022-08-20T16:01:38.536Z,10.30
2022-08-20T16:04:24.141Z,10.70
2022-08-20T16:06:57.757Z,11.50
2022-08-20T16:12:32.110Z,10.10
2022-08-20T16:15:07.967Z,10.90
2022-08-20T16:18:13.560Z,11.30
2022-08-20T16:20:48.947Z,11.60
2022-08-20T16:23:19.806Z,11.70
2022-08-20T16:25:59.157Z,13.20
2022-08-20T16:28:32.642Z,13.20
2022-08-20T16:33:45.626Z,13.50
2022-08-20T16:37:03.056Z,14.40
2022-08-20T16:39:58.397Z,14.80
2022-08-20T16:42:33.142Z,13.90
2022-08-20T16:45:03.342Z,14.10
2022-08-20T16:47:35.557Z,15.10
2022-08-20T16:50:11.325Z,12.90
2022-08-20T16:52:43.412Z,13.60
2022-08-20T16:55:13.373Z,13.50
2022-08-20T16:57:41.393Z,12.80
2022-08-20T17:00:20.093Z,13.70
2022-08-20T17:03:02.946Z,14.50
2022-08-20T17:05:54.519Z,13.70
2022-08-20T17:08:35.102Z,11.60
2022-08-20T17:11:17.240Z,10.60
2022-08-20T17:13:48.017Z,11.90
2022-08-20T17:16:20.145Z,9.60
2022-08-20T17:18:51.185Z,9.90
2022-08-20T17:21:33.133Z,9.40
2022-08-20T17:24:28.104Z,8.50
2022-08-20T17:27:00.103Z,8.40
2022-08-20T17:29:31.852Z,8.80
2022-08-20T17:32:17.194Z,8.20
2022-08-20T17:34:51.028Z,7.40
2022-08-20T17:37:29.096Z,7.90
2022-08-20T17:40:11.326Z,7.10
2022-08-20T17:42:59.066Z,8.00
2022-08-20T17:45:35.647Z,7.10
2022-08-20T17:48:07.142Z,7.90
2022-08-20T17:50:42.951Z,6.80
2022-08-20T17:53:23.127Z,5.50
2022-08-20T17:55:58.697Z,7.40
2022-08-20T17:58:39.911Z,5.90
2022-08-20T18:03:53.593Z,5.60
2022-08-20T18:06:37.283Z,5.80
2022-08-20T18:09:22.719Z,5.30
2022-08-20T18:12:02.978Z,6.30
2022-08-20T18:15:08.162Z,5.90
2022-08-20T18:17:59.953Z,5.60
2022-08-20T18:21:07.484Z,5.90
2022-08-20T18:23:43.264Z,6.00
2022-08-20T18:26:28.602Z,6.50
2022-08-20T18:29:04.008Z,6.60
2022-08-20T18:31:40.802Z,6.10
2022-08-20T18:34:29.644Z,5.40
2022-08-20T18:37:03.288Z,5.10
2022-08-20T18:42:11.142Z,6.20
2022-08-20T18:44:43.947Z,5.70
2022-08-20T18:47:21.393Z,5.20
2022-08-20T18:50:39.184Z,7.20
2022-08-20T18:53:13.548Z,4.80
2022-08-20T18:55:45.347Z,5.00
2022-08-20T18:58:30.812Z,5.70
2022-08-20T19:01:02.259Z,5.70
2022-08-20T19:03:36.056Z,6.20
2022-08-20T19:06:28.456Z,5.30
2022-08-20T19:09:36.011Z,4.60
2022-08-20T19:12:20.813Z,3.90
2022-08-20T19:14:54.470Z,3.80
2022-08-20T19:17:33.146Z,3.80
2022-08-20T19:20:04.018Z,3.50
2022-08-20T19:22:33.790Z,5.00
2022-08-20T19:25:01.690Z,4.10
2022-08-20T19:27:30.661Z,4.10
2022-08-20T19:29:58.601Z,3.50
2022-08-20T19:32:29.888Z,5.30
2022-08-20T19:35:02.385Z,3.70
2022-08-20T19:37:50.409Z,3.50
2022-08-20T19:40:24.421Z,2.80
2022-08-20T19:42:59.782Z,3.60
2022-08-20T19:45:36.237Z,3.60
2022-08-20T19:48:29.196Z,2.70
2022-08-20T19:51:29.462Z,2.80
2022-08-20T19:53:57.841Z,2.10
2022-08-20T19:56:28.094Z,2.50
2022-08-20T19:59:07.359Z,2.60
2022-08-20T20:01:36.039Z,2.20
2022-08-20T20:04:16.578Z,2.20
2022-08-20T20:06:47.842Z,2.20
2022-08-20T20:09:27.818Z,1.90
2022-08-20T20:11:58.953Z,2.00
2022-08-20T20:14:30.917Z,2.10
2022-08-20T20:16:59.996Z,2.00
2022-08-20T20:19:28.699Z,3.00
2022-08-20T20:22:19.532Z,2.20
2022-08-20T20:24:58.220Z,2.30
2022-08-20T20:27:28.972Z,2.10
2022-08-20T20:30:02.952Z,2.80
2022-08-20T20:32:33.697Z,2.00
2022-08-20T20:35:06.060Z,2.50
2022-08-20T20:37:49.307Z,2.60
2022-08-20T20:40:27.887Z,2.70
2022-08-20T20:43:05.845Z,2.40
2022-08-20T20:45:45.817Z,2.50
2022-08-20T20:48:24.486Z,3.00
2022-08-20T20:50:56.273Z,2.50
2022-08-20T20:53:51.000Z,2.70
2022-08-20T20:56:26.307Z,3.00
2022-08-20T20:58:56.700Z,2.60
2022-08-20T21:01:34.538Z,2.50
2022-08-20T21:04:13.860Z,2.80
2022-08-20T21:06:41.618Z,3.10
2022-08-20T21:09:09.543Z,2.60
2022-08-20T21:11:38.414Z,2.70
2022-08-20T21:14:06.448Z,2.40
2022-08-20T21:16:37.166Z,2.90
2022-08-20T21:19:06.935Z,3.10
2022-08-20T21:21:36.218Z,3.30
2022-08-20T21:24:05.662Z,3.40
2022-08-20T21:26:33.810Z,3.50
2022-08-20T21:29:01.868Z,4.10
2022-08-20T21:31:34.514Z,4.10
2022-08-20T21:34:02.854Z,4.30
2022-08-20T21:36:30.663Z,4.90
2022-08-20T21:38:58.570Z,5.10
2022-08-20T21:41:29.919Z,5.20
2022-08-20T21:44:01.370Z,5.40
2022-08-20T21:46:29.255Z,5.90
2022-08-20T21:48:57.063Z,6.80
2022-08-20T21:51:24.932Z,6.40
2022-08-20T21:53:52.848Z,6.20
2022-08-20T21:56:23.484Z,7.80
2022-08-20T21:58:51.962Z,9.10
2022-08-20T22:01:23.285Z,9.90
2022-08-20T22:03:51.729Z,9.80
2022-08-20T22:06:20.204Z,10.60
2022-08-20T22:08:48.445Z,11.10
2022-08-20T22:11:16.557Z,10.90
2022-08-20T22:13:44.651Z,11.00
2022-08-20T22:16:18.492Z,11.40
2022-08-20T22:18:47.924Z,11.60
2022-08-20T22:21:29.815Z,11.30
2022-08-20T22:24:04.142Z,11.50
2022-08-20T22:26:35.504Z,12.20
2022-08-20T22:29:04.981Z,10.40
2022-08-20T22:31:35.464Z,11.00
2022-08-20T22:34:03.967Z,10.70
2022-08-20T22:36:33.061Z,10.00
2022-08-20T22:39:01.113Z,10.80
2022-08-20T22:41:29.180Z,10.10
2022-08-20T22:43:57.495Z,10.20
2022-08-20T22:46:33.565Z,10.30
2022-08-20T22:49:01.477Z,10.20
2022-08-20T22:51:32.632Z,10.90
2022-08-20T22:56:31.677Z,9.90
2022-08-20T22:59:00.280Z,9.70
2022-08-20T23:01:29.318Z,9.90
2022-08-20T23:04:23.205Z,10.00
2022-08-20T23:06:51.854Z,10.30
2022-08-20T23:09:21.709Z,10.00
2022-08-20T23:11:49.886Z,9.70
2022-08-20T23:14:18.071Z,9.50
2022-08-20T23:16:49.183Z,9.10
2022-08-20T23:19:21.719Z,10.10
2022-08-20T23:21:51.273Z,9.70
2022-08-20T23:24:20.310Z,9.80
2022-08-20T23:26:52.425Z,8.80
2022-08-20T23:29:25.727Z,9.70
2022-08-20T23:31:56.275Z,8.70
2022-08-20T23:34:26.575Z,8.70
2022-08-20T23:36:56.488Z,8.10
2022-08-20T23:39:26.037Z,8.70
2022-08-20T23:41:54.000Z,8.20
2022-08-20T23:44:26.310Z,8.00
2022-08-20T23:49:25.891Z,8.80
2022-08-20T23:51:53.915Z,8.00
2022-08-20T23:54:21.748Z,9.30
2022-08-20T23:56:49.766Z,7.80
2022-08-20T23:59:17.782Z,8.30
